Time;durP1;ratioP1;P1;durP2;ratioP2;P2;SDS_P1;SDS_P2;PMS_P1;PMS_P2;Temp;Humidity;BMP_temperature;BMP_pressure;BME280_temperature;BME280_humidity;BME280_pressure;Samples;Min_cycle;Max_cycle;Signal;HPM_P1;HPM_P2
2022/07/19 00:05:00;;;;;;;4.90;2.60;;;;;;;21.45;47.09;100730.94;10233907;28;20054;-78
2022/07/19 00:10:05;;;;;;;3.92;2.85;;;;;;;21.21;47.52;100732.03;10239775;28;20186;-78
2022/07/19 00:15:12;;;;;;;5.43;3.60;;;;;;;21.18;47.58;100726.13;10234785;28;20054;-78
2022/07/19 00:20:17;;;;;;;3.88;3.10;;;;;;;21.12;47.46;100722.25;10240797;28;20043;-78
2022/07/19 00:25:21;;;;;;;4.90;2.83;;;;;;;21.18;47.38;100726.13;10236339;28;20087;-78
2022/07/19 00:30:25;;;;;;;7.85;3.00;;;;;;;20.85;47.62;100720.91;10242279;28;20512;-77
2022/07/19 00:35:28;;;;;;;3.00;2.53;;;;;;;20.82;48.18;100715.84;10241441;28;20051;-77
2022/07/19 00:40:30;;;;;;;3.47;2.80;;;;;;;20.78;48.41;100718.06;10216539;28;20129;-77
2022/07/19 00:45:35;;;;;;;4.72;3.00;;;;;;;20.83;47.82;100719.41;10226242;28;20050;-78
2022/07/19 00:50:38;;;;;;;5.13;2.70;;;;;;;20.80;48.14;100717.88;10243260;28;20186;-78
2022/07/19 00:55:42;;;;;;;3.47;2.67;;;;;;;20.75;47.76;100720.31;10236680;28;20776;-77
2022/07/19 01:00:46;;;;;;;5.82;3.15;;;;;;;20.74;47.97;100721.34;10238278;28;20058;-77
2022/07/19 01:05:49;;;;;;;10.88;3.20;;;;;;;20.66;48.46;100713.22;10214343;28;20621;-77
2022/07/19 01:10:52;;;;;;;3.30;2.63;;;;;;;20.47;48.70;100720.03;10236339;28;20515;-77
2022/07/19 01:15:56;;;;;;;4.03;3.28;;;;;;;20.35;48.81;100716.88;10235017;28;20046;-77
2022/07/19 01:21:01;;;;;;;6.43;3.13;;;;;;;20.29;48.96;100712.06;10247805;28;20117;-77
2022/07/19 01:26:05;;;;;;;8.27;3.50;;;;;;;20.30;48.81;100716.53;10241543;28;20105;-77
2022/07/19 01:31:08;;;;;;;5.72;2.88;;;;;;;20.27;48.89;100716.88;10238701;28;20133;-78
2022/07/19 01:36:12;;;;;;;7.95;3.50;;;;;;;20.21;48.99;100714.84;10233708;28;20058;-77
2022/07/19 01:41:16;;;;;;;7.90;3.58;;;;;;;20.08;49.24;100721.75;10220393;28;20481;-78
2022/07/19 01:46:18;;;;;;;5.22;2.80;;;;;;;19.82;49.98;100719.31;10232565;28;20050;-77
2022/07/19 01:51:21;;;;;;;4.80;3.10;;;;;;;19.71;50.61;100724.31;10265188;28;20066;-77
2022/07/19 01:56:26;;;;;;;4.30;3.00;;;;;;;19.69;50.73;100727.19;10242584;28;20173;-77
2022/07/19 02:01:29;;;;;;;5.22;3.35;;;;;;;19.64;51.06;100733.19;10248035;28;20517;-77
2022/07/19 02:06:31;;;;;;;4.63;3.03;;;;;;;19.45;51.53;100719.94;10250396;28;20051;-77
2022/07/19 02:11:36;;;;;;;3.95;3.10;;;;;;;19.48;51.65;100727.75;10251168;28;20055;-78
2022/07/19 02:16:39;;;;;;;4.10;3.00;;;;;;;19.45;51.38;100728.13;10221264;28;20051;-77
2022/07/19 02:21:42;;;;;;;3.40;1.75;;;;;;;19.42;51.05;100718.41;10229056;28;20046;-77
2022/07/19 02:26:46;;;;;;;4.47;2.53;;;;;;;19.26;51.06;100715.72;10243222;28;21380;-77
2022/07/19 02:31:49;;;;;;;2.95;2.60;;;;;;;19.39;50.99;100712.44;10252198;28;20062;-77
2022/07/19 02:36:52;;;;;;;3.88;2.90;;;;;;;19.45;50.76;100718.06;10235558;28;20065;-77
2022/07/19 02:41:57;;;;;;;4.93;2.90;;;;;;;19.46;50.73;100708.84;10234066;28;20066;-77
2022/07/19 02:46:59;;;;;;;6.63;3.42;;;;;;;19.32;50.65;100715.03;10268790;28;20078;-77
2022/07/19 02:52:02;;;;;;;5.28;2.38;;;;;;;19.38;50.40;100724.38;10220764;28;20141;-77
2022/07/19 02:57:06;;;;;;;3.53;2.60;;;;;;;19.33;50.23;100718.59;10233121;28;20043;-78
2022/07/19 03:02:09;;;;;;;4.95;2.42;;;;;;;19.21;50.30;100718.13;10242298;28;20074;-77
2022/07/19 03:07:13;;;;;;;3.75;2.00;;;;;;;19.20;50.39;100724.59;10235415;28;20055;-77
2022/07/19 03:12:17;;;;;;;5.53;2.38;;;;;;;19.01;50.58;100720.38;10223121;28;20137;-77
2022/07/19 03:17:22;;;;;;;4.25;2.55;;;;;;;19.02;50.54;100722.06;10216158;28;20146;-76
2022/07/19 03:22:24;;;;;;;3.42;2.47;;;;;;;19.14;50.52;100725.25;10235645;28;20173;-77
2022/07/19 03:27:29;;;;;;;4.05;2.30;;;;;;;19.15;50.19;100725.09;10237879;28;20054;-77
2022/07/19 03:32:31;;;;;;;5.07;3.00;;;;;;;19.23;50.10;100729.69;10232256;28;20062;-77
2022/07/19 03:37:35;;;;;;;2.70;2.47;;;;;;;19.19;50.11;100726.44;10234980;28;20046;-77
2022/07/19 03:42:39;;;;;;;4.82;2.55;;;;;;;19.22;49.97;100733.41;10241844;28;20054;-78
2022/07/19 03:47:42;;;;;;;8.57;3.08;;;;;;;19.05;50.33;100729.03;10222948;28;20102;-78
2022/07/19 03:52:45;;;;;;;5.13;2.97;;;;;;;18.94;50.46;100732.94;10229836;28;20063;-78
2022/07/19 03:57:49;;;;;;;4.40;2.72;;;;;;;18.89;50.43;100730.72;10240333;28;20062;-78
2022/07/19 04:02:52;;;;;;;4.57;2.60;;;;;;;18.84;50.61;100722.25;10237553;28;20047;-78
2022/07/19 04:07:55;;;;;;;5.30;2.60;;;;;;;18.89;50.27;100729.88;10251706;28;20046;-77
2022/07/19 04:12:59;;;;;;;6.10;3.38;;;;;;;18.82;50.60;100731.59;10250989;28;20043;-78
2022/07/19 04:18:02;;;;;;;5.50;2.80;;;;;;;19.05;50.11;100732.59;10253371;28;20103;-78
2022/07/19 04:23:05;;;;;;;4.78;2.72;;;;;;;19.13;49.68;100740.75;10236471;28;20081;-78
2022/07/19 04:28:09;;;;;;;4.05;2.40;;;;;;;19.16;49.55;100742.28;10256303;28;21249;-78
2022/07/19 04:33:14;;;;;;;4.10;2.78;;;;;;;19.22;49.37;100741.59;10257375;28;20081;-78
2022/07/19 04:38:17;;;;;;;5.18;2.28;;;;;;;19.38;49.47;100743.44;10244761;28;20058;-78
2022/07/19 04:43:21;;;;;;;5.63;2.55;;;;;;;19.47;49.45;100750.56;10237911;28;20051;-78
2022/07/19 04:48:24;;;;;;;4.65;2.45;;;;;;;19.56;49.73;100759.63;10236725;28;20070;-77
2022/07/19 04:53:27;;;;;;;4.07;2.30;;;;;;;19.63;49.11;100749.72;10236683;28;20047;-78
2022/07/19 04:58:31;;;;;;;2.90;2.17;;;;;;;19.74;49.68;100756.66;10240614;28;20149;-78
2022/07/19 05:03:34;;;;;;;5.47;2.60;;;;;;;19.83;49.96;100755.63;10244922;28;20082;-77
2022/07/19 05:08:37;;;;;;;4.53;2.50;;;;;;;19.91;49.88;100752.84;10247921;28;20051;-78
2022/07/19 05:13:41;;;;;;;2.83;2.53;;;;;;;20.10;49.30;100754.28;10243984;28;20520;-77
2022/07/19 05:18:44;;;;;;;6.70;2.70;;;;;;;20.15;49.19;100746.44;10240130;28;20058;-78
2022/07/19 05:23:47;;;;;;;8.73;2.92;;;;;;;20.13;49.16;100749.34;10227910;28;20062;-78
2022/07/19 05:28:51;;;;;;;5.10;2.78;;;;;;;20.23;49.13;100756.44;10239607;28;20132;-77
2022/07/19 05:33:54;;;;;;;4.80;3.40;;;;;;;20.37;49.17;100747.53;10227518;28;20103;-77
2022/07/19 05:38:57;;;;;;;3.53;2.72;;;;;;;20.51;48.83;100749.47;10233213;28;20121;-77
2022/07/19 05:44:01;;;;;;;6.38;2.63;;;;;;;20.58;48.52;100743.31;10253374;28;20085;-77
2022/07/19 05:49:04;;;;;;;4.13;2.85;;;;;;;20.80;48.51;100750.66;10245520;28;20496;-77
2022/07/19 05:54:07;;;;;;;7.30;3.10;;;;;;;21.00;47.97;100743.63;10243865;28;20042;-77
2022/07/19 05:59:11;;;;;;;8.20;2.72;;;;;;;21.16;46.87;100737.22;10212042;28;20754;-77
2022/07/19 06:04:14;;;;;;;6.88;2.75;;;;;;;21.31;46.68;100739.13;10218782;28;20172;-77
2022/07/19 06:09:17;;;;;;;6.45;2.90;;;;;;;21.50;46.42;100743.19;10232771;28;20139;-77
2022/07/19 06:14:21;;;;;;;12.02;3.60;;;;;;;21.57;45.77;100739.53;10237032;28;20093;-77
2022/07/19 06:19:25;;;;;;;9.00;3.22;;;;;;;21.85;45.55;100738.88;10243168;28;20168;-77
2022/07/19 06:24:28;;;;;;;7.80;3.00;;;;;;;22.08;45.00;100727.81;10244625;28;20086;-76
2022/07/19 06:29:32;;;;;;;8.52;3.70;;;;;;;22.27;43.76;100738.16;10247029;28;20189;-77
2022/07/19 06:34:35;;;;;;;6.38;3.25;;;;;;;22.56;43.42;100739.13;10244293;28;20153;-77
2022/07/19 06:39:38;;;;;;;6.85;2.90;;;;;;;22.80;43.21;100740.63;10242365;28;20051;-77
2022/07/19 06:44:42;;;;;;;6.22;2.75;;;;;;;23.21;42.74;100731.72;10246763;28;20058;-77
2022/07/19 06:49:45;;;;;;;6.03;3.20;;;;;;;23.46;42.54;100729.38;10239984;28;20090;-77
2022/07/19 06:54:48;;;;;;;8.02;2.80;;;;;;;23.81;42.96;100729.41;10226793;28;20055;-77
2022/07/19 06:59:52;;;;;;;6.20;3.25;;;;;;;24.25;42.21;100734.44;10219802;28;20055;-76
2022/07/19 07:04:55;;;;;;;5.95;2.97;;;;;;;24.53;41.48;100737.06;10231688;28;20141;-77
2022/07/19 07:09:58;;;;;;;5.63;2.90;;;;;;;24.79;40.03;100738.16;10248715;28;20129;-77
2022/07/19 07:15:02;;;;;;;8.93;3.42;;;;;;;24.94;39.92;100726.97;10245708;28;20461;-77
2022/07/19 07:20:07;;;;;;;7.53;3.05;;;;;;;25.18;39.50;100725.53;10216303;28;20106;-76
2022/07/19 07:25:10;;;;;;;6.95;2.90;;;;;;;25.68;39.00;100730.53;10242633;28;20051;-77
2022/07/19 07:30:14;;;;;;;8.55;3.13;;;;;;;26.55;37.52;100719.97;10247716;28;20075;-78
2022/07/19 07:35:17;;;;;;;7.68;2.95;;;;;;;28.13;35.77;100721.47;10237781;28;20051;-78
2022/07/19 07:40:20;;;;;;;8.75;2.60;;;;;;;30.44;32.16;100709.25;10249717;28;20050;-78
2022/07/19 07:45:24;;;;;;;5.53;3.15;;;;;;;31.97;28.83;100710.84;10239040;28;20118;-79
2022/07/19 07:50:28;;;;;;;3.78;2.42;;;;;;;33.90;26.90;100707.16;10220016;28;20053;-78
2022/07/19 07:55:30;;;;;;;3.90;2.28;;;;;;;34.19;26.08;100704.78;10235872;28;20047;-78
2022/07/19 08:00:36;;;;;;;4.85;2.78;;;;;;;35.10;24.52;100710.75;10256400;28;20051;-78
2022/07/19 08:05:39;;;;;;;6.68;2.70;;;;;;;33.62;26.93;100705.66;10258304;28;20688;-78
2022/07/19 08:10:42;;;;;;;3.45;2.28;;;;;;;31.57;30.56;100715.59;10243906;28;20066;-78
2022/07/19 08:15:47;;;;;;;3.80;2.30;;;;;;;30.79;29.97;100703.53;10244340;28;20058;-78
2022/07/19 08:20:49;;;;;;;5.38;2.38;;;;;;;30.67;30.42;100711.09;10237068;28;20637;-78
2022/07/19 08:25:52;;;;;;;8.75;2.33;;;;;;;30.82;31.14;100707.75;10246866;28;20046;-78
2022/07/19 08:30:56;;;;;;;5.78;2.30;;;;;;;31.10;29.73;100709.56;10246733;28;20579;-79
2022/07/19 08:36:14;;;;;;;8.02;2.45;;;;;;;31.08;29.06;100707.06;10254505;28;20141;-79
2022/07/19 08:41:17;;;;;;;5.22;2.70;;;;;;;31.60;29.42;100696.75;10256724;28;20055;-76
2022/07/19 08:46:21;;;;;;;9.00;2.38;;;;;;;31.90;29.00;100702.72;10271814;28;20046;-79
2022/07/19 08:51:26;;;;;;;4.47;2.22;;;;;;;32.21;28.97;100703.91;10241526;28;20127;-78
2022/07/19 09:01:52;;;;;;;5.25;2.22;;;;;;;32.61;27.42;100696.25;10231745;28;20051;-78
2022/07/19 09:06:56;;;;;;;5.97;2.20;;;;;;;32.90;27.76;100691.25;10263007;28;20046;-79
2022/07/19 09:12:00;;;;;;;3.88;2.38;;;;;;;33.29;27.17;100689.03;10251595;28;20078;-79
2022/07/19 09:17:06;;;;;;;5.53;2.33;;;;;;;33.36;25.46;100687.97;10270883;28;20042;-78
2022/07/19 09:22:17;;;;;;;7.38;2.10;;;;;;;33.77;24.89;100675.94;10262365;28;20039;-78
2022/07/19 09:27:22;;;;;;;5.60;2.15;;;;;;;34.17;25.18;100677.22;10254971;28;20054;-78
2022/07/19 09:32:27;;;;;;;6.03;2.00;;;;;;;34.46;23.50;100676.69;10238805;28;20140;-78
2022/07/19 09:43:00;;;;;;;5.85;1.98;;;;;;;34.94;23.70;100673.63;10978821;23;20047;-80
2022/07/19 09:48:05;;;;;;;2.75;1.73;;;;;;;34.61;23.03;100668.38;10211247;28;20110;-79
2022/07/19 09:53:07;;;;;;;1.88;1.70;;;;;;;35.19;22.94;100668.06;10185381;28;20083;-79
2022/07/19 09:58:11;;;;;;;2.17;1.88;;;;;;;35.36;21.24;100656.56;10192442;28;20047;-80
2022/07/19 10:03:17;;;;;;;7.93;2.08;;;;;;;35.40;22.38;100665.19;10193395;28;20197;-81
2022/07/19 10:08:20;;;;;;;1.98;1.65;;;;;;;35.55;21.24;100658.75;10208947;28;20088;-79
2022/07/19 10:13:23;;;;;;;3.92;1.77;;;;;;;36.03;21.07;100645.13;10244385;28;20050;-80
2022/07/19 10:18:38;;;;;;;2.38;2.00;;;;;;;36.16;21.24;100636.91;10226150;28;20039;-81
2022/07/19 10:23:51;;;;;;;3.35;1.90;;;;;;;36.55;21.31;100635.25;10223654;28;20586;-79
2022/07/19 10:29:07;;;;;;;4.05;2.28;;;;;;;36.36;20.61;100624.75;10229175;28;20081;-78
2022/07/19 10:34:23;;;;;;;2.80;1.25;;;;;;;36.65;20.13;100623.13;10215365;28;20051;-80
2022/07/19 10:39:30;;;;;;;5.93;2.08;;;;;;;36.64;19.73;100615.84;10207973;28;21228;-80
2022/07/19 10:45:15;;;;;;;8.20;2.13;;;;;;;36.72;20.03;100612.41;10193547;28;20062;-79
2022/07/19 10:50:21;;;;;;;3.63;1.65;;;;;;;37.07;19.67;100600.03;10186485;28;20102;-81
2022/07/19 10:55:28;;;;;;;3.33;1.80;;;;;;;37.35;19.61;100589.94;10209567;28;20098;-80
2022/07/19 11:00:32;;;;;;;3.05;1.77;;;;;;;37.26;20.48;100600.13;10240948;28;20051;-79
2022/07/19 11:05:46;;;;;;;2.25;1.80;;;;;;;37.72;19.51;100590.31;10215441;28;20839;-80
2022/07/19 11:10:49;;;;;;;4.10;2.20;;;;;;;37.04;19.53;100576.28;10229729;28;20059;-79
2022/07/19 11:15:55;;;;;;;2.28;1.48;;;;;;;37.99;20.04;100572.78;10226688;28;20047;-78
2022/07/19 11:21:01;;;;;;;3.30;1.92;;;;;;;38.27;18.98;100569.00;10235333;28;20054;-80
2022/07/19 11:26:11;;;;;;;3.63;1.70;;;;;;;38.53;18.99;100560.97;10223370;28;20051;-79
2022/07/19 11:31:15;;;;;;;2.83;1.58;;;;;;;38.11;18.33;100557.22;10235675;28;20205;-80
2022/07/19 11:36:21;;;;;;;4.15;1.70;;;;;;;38.65;18.48;100548.44;10241196;28;20050;-79
2022/07/19 11:41:26;;;;;;;3.35;1.40;;;;;;;38.95;18.56;100542.25;10251766;28;20067;-80
2022/07/19 11:46:32;;;;;;;1.65;1.25;;;;;;;39.08;17.24;100545.34;10221547;28;20059;-80
2022/07/19 11:51:37;;;;;;;3.70;1.33;;;;;;;38.92;17.21;100536.38;10243378;28;20059;-79
2022/07/19 11:56:40;;;;;;;3.88;1.60;;;;;;;38.30;17.49;100529.13;10242210;28;20059;-80
2022/07/19 12:01:44;;;;;;;4.25;1.33;;;;;;;38.97;17.86;100525.91;10238834;28;20058;-81
2022/07/19 12:06:51;;;;;;;6.03;1.63;;;;;;;39.07;16.52;100526.84;10219074;28;20046;-81
2022/07/19 12:11:55;;;;;;;2.15;1.05;;;;;;;39.14;16.37;100524.44;10227120;28;20051;-81
2022/07/19 12:17:11;;;;;;;5.95;1.50;;;;;;;39.67;16.91;100519.06;10208368;28;20057;-80
2022/07/19 12:22:33;;;;;;;1.98;1.25;;;;;;;39.92;16.30;100513.97;10223286;28;20047;-81
2022/07/19 12:27:37;;;;;;;3.30;1.25;;;;;;;40.37;16.39;100496.25;10227649;28;20058;-80
2022/07/19 12:32:42;;;;;;;3.85;1.50;;;;;;;40.59;16.31;100498.19;10202899;28;20055;-80
2022/07/19 12:37:47;;;;;;;3.40;1.55;;;;;;;40.47;16.19;100495.97;10240781;28;20051;-79
2022/07/19 12:42:59;;;;;;;2.88;1.48;;;;;;;40.02;15.41;100488.41;10210854;28;20043;-81
2022/07/19 12:48:03;;;;;;;2.42;1.80;;;;;;;39.81;16.12;100479.66;10203277;28;20051;-80
2022/07/19 12:53:09;;;;;;;3.10;1.85;;;;;;;39.67;15.79;100464.81;10200779;28;20055;-80
2022/07/19 12:59:38;;;;;;;2.92;2.10;;;;;;;40.80;15.49;100457.06;10203447;28;21173;-80
2022/07/19 13:03:37;;;;;;;5.68;2.45;;;;;;;40.91;15.09;100454.75;10201209;28;20074;-83
2022/07/19 13:08:41;;;;;;;3.80;2.15;;;;;;;40.55;15.27;100462.25;10201258;28;20680;-78
2022/07/19 13:13:45;;;;;;;6.00;1.90;;;;;;;41.02;15.41;100452.50;10202894;28;20544;-79
2022/07/19 13:18:49;;;;;;;2.95;1.70;;;;;;;41.43;14.96;100452.06;10194324;28;20048;-78
2022/07/19 13:23:54;;;;;;;2.58;1.58;;;;;;;41.63;14.78;100437.28;10195718;28;20047;-80
2022/07/19 13:29:04;;;;;;;2.13;1.55;;;;;;;41.76;14.87;100440.28;10189860;28;20053;-78
2022/07/19 13:34:07;;;;;;;4.68;1.60;;;;;;;41.58;13.65;100436.63;10201036;28;20040;-80
2022/07/19 13:39:12;;;;;;;8.43;1.90;;;;;;;41.57;14.13;100435.78;10235511;28;21173;-80
2022/07/19 13:44:15;;;;;;;2.42;1.80;;;;;;;41.69;14.38;100428.66;10225005;28;20601;-79
2022/07/19 13:49:18;;;;;;;5.68;2.00;;;;;;;42.23;14.09;100420.59;10215262;28;20051;-80
2022/07/19 13:54:22;;;;;;;6.70;1.90;;;;;;;42.09;13.93;100418.78;10202216;28;20099;-79
2022/07/19 13:59:26;;;;;;;3.40;2.10;;;;;;;41.99;13.83;100407.91;10202584;28;20127;-79
2022/07/19 14:04:29;;;;;;;3.95;1.95;;;;;;;42.11;14.35;100407.19;10200556;28;20058;-80
2022/07/19 14:09:36;;;;;;;4.50;2.15;;;;;;;42.67;13.70;100395.81;10197369;28;20048;-80
2022/07/19 14:14:46;;;;;;;3.80;2.50;;;;;;;42.18;14.31;100387.75;10201465;28;20047;-80
2022/07/19 14:19:48;;;;;;;3.45;2.13;;;;;;;41.72;14.19;100395.00;10208124;28;20122;-80
2022/07/19 14:24:53;;;;;;;4.22;1.98;;;;;;;42.08;13.71;100380.47;10203979;28;20047;-80
2022/07/19 14:29:57;;;;;;;2.00;1.80;;;;;;;42.43;13.68;100385.13;10202371;28;20062;-80
2022/07/19 14:34:59;;;;;;;6.18;2.13;;;;;;;42.60;13.83;100375.78;10191290;28;20198;-79
2022/07/19 14:40:04;;;;;;;4.00;1.92;;;;;;;42.73;13.74;100367.06;10214814;28;20051;-79
2022/07/19 14:45:09;;;;;;;3.78;2.10;;;;;;;42.27;13.61;100365.97;10212760;28;20048;-80
2022/07/19 14:50:12;;;;;;;9.05;2.00;;;;;;;42.30;14.02;100358.84;10217262;28;20163;-78
2022/07/19 14:55:16;;;;;;;6.25;1.92;;;;;;;42.11;13.49;100350.75;10205788;28;20145;-80
2022/07/19 15:00:19;;;;;;;5.40;1.88;;;;;;;42.58;13.94;100345.06;10213982;28;20079;-80
2022/07/19 15:05:22;;;;;;;3.22;2.10;;;;;;;42.92;13.86;100341.19;10231585;28;20051;-78
2022/07/19 15:10:27;;;;;;;2.28;1.85;;;;;;;42.87;14.01;100337.69;10226580;28;20121;-79
2022/07/19 15:15:29;;;;;;;2.03;1.75;;;;;;;41.79;13.80;100327.66;10204819;28;20059;-78
2022/07/19 15:20:32;;;;;;;3.80;2.00;;;;;;;41.52;13.69;100328.03;10205771;28;20047;-80
2022/07/19 15:25:37;;;;;;;2.33;1.70;;;;;;;41.50;13.75;100319.94;10240936;28;20043;-80
2022/07/19 15:30:42;;;;;;;2.50;1.60;;;;;;;42.02;13.87;100319.78;10235897;28;20058;-80
2022/07/19 15:35:45;;;;;;;4.35;2.13;;;;;;;42.12;13.73;100306.44;10231035;28;20062;-80
2022/07/19 15:40:49;;;;;;;4.97;2.20;;;;;;;41.84;13.47;100309.72;10234129;28;20055;-79
2022/07/19 15:45:52;;;;;;;2.40;2.13;;;;;;;41.68;14.20;100305.78;10237751;28;20725;-80
2022/07/19 15:50:55;;;;;;;3.30;1.75;;;;;;;41.25;14.38;100306.66;10206170;28;21352;-80
2022/07/19 15:55:59;;;;;;;2.47;1.83;;;;;;;40.69;14.12;100296.06;10222797;28;20092;-79
2022/07/19 16:01:02;;;;;;;4.43;1.80;;;;;;;41.05;14.19;100286.47;10239854;28;20043;-79
2022/07/19 16:06:05;;;;;;;4.18;2.60;;;;;;;40.95;14.07;100283.97;10237218;28;20120;-80
2022/07/19 16:11:09;;;;;;;4.18;2.00;;;;;;;41.37;14.06;100279.50;10235204;28;20046;-80
2022/07/19 16:16:12;;;;;;;2.38;1.88;;;;;;;40.71;14.56;100267.59;10224195;28;20592;-79
2022/07/19 16:21:15;;;;;;;3.08;2.05;;;;;;;40.46;14.90;100261.59;10200169;28;20054;-82
2022/07/19 16:26:20;;;;;;;6.28;2.40;;;;;;;40.64;15.09;100268.09;10219378;28;20055;-81
2022/07/19 16:31:23;;;;;;;4.78;2.47;;;;;;;40.80;14.78;100268.41;10219562;28;21226;-82
2022/07/19 16:36:27;;;;;;;4.22;2.55;;;;;;;41.04;14.03;100258.69;10224398;28;20055;-81
2022/07/19 16:41:32;;;;;;;5.05;2.03;;;;;;;40.82;14.70;100263.28;10194129;28;21180;-82
2022/07/19 16:46:34;;;;;;;5.03;1.88;;;;;;;40.46;14.83;100252.34;10196495;28;20051;-82
2022/07/19 16:51:37;;;;;;;5.32;2.03;;;;;;;42.31;14.03;100250.44;10227238;28;20146;-81
2022/07/19 16:56:47;;;;;;;8.80;2.25;;;;;;;44.78;12.77;100236.44;10230744;28;20035;-80
2022/07/19 17:01:50;;;;;;;3.55;2.10;;;;;;;46.29;12.16;100235.53;10225852;28;20130;-81
2022/07/19 17:06:53;;;;;;;4.97;2.03;;;;;;;46.25;12.13;100243.16;10203637;28;20053;-82
2022/07/19 17:11:58;;;;;;;3.20;2.20;;;;;;;46.99;11.44;100243.16;10224114;28;20114;-82
2022/07/19 17:17:01;;;;;;;10.63;2.85;;;;;;;46.08;12.28;100241.53;10208374;28;20438;-82
2022/07/19 17:22:04;;;;;;;9.45;2.83;;;;;;;46.36;11.86;100238.53;10182829;28;20516;-82
2022/07/19 17:27:09;;;;;;;8.80;2.47;;;;;;;45.88;12.22;100249.16;10196364;28;20059;-82
2022/07/19 17:32:11;;;;;;;8.00;2.80;;;;;;;45.75;11.74;100248.41;10205619;28;20047;-81
2022/07/19 17:37:14;;;;;;;7.05;2.22;;;;;;;45.90;11.47;100240.28;10201584;28;20043;-81
2022/07/19 17:42:19;;;;;;;4.85;2.40;;;;;;;46.16;11.30;100246.19;10199919;28;20078;-81
2022/07/19 17:47:21;;;;;;;1.50;1.40;;;;;;;44.88;11.83;100238.75;10196108;28;20055;-81
2022/07/19 17:52:25;;;;;;;4.30;1.63;;;;;;;44.80;12.16;100241.75;10165410;28;20059;-80
2022/07/19 17:57:30;;;;;;;3.85;2.20;;;;;;;44.30;12.21;100221.22;10163753;28;20422;-80
2022/07/19 18:02:58;;;;;;;1.88;1.60;;;;;;;41.11;13.70;100234.44;11228330;23;20131;-76
2022/07/19 18:08:01;;;;;;;3.70;1.90;;;;;;;38.34;15.51;100241.28;10216643;29;20412;-76
2022/07/19 18:13:05;;;;;;;1.95;1.65;;;;;;;37.47;16.38;100230.97;10216830;29;20118;-76
2022/07/19 18:18:08;;;;;;;3.40;2.05;;;;;;;36.95;16.77;100233.81;10217069;29;20051;-76
2022/07/19 18:23:12;;;;;;;3.20;1.88;;;;;;;36.21;17.54;100243.81;10215715;29;20063;-76
2022/07/19 18:28:16;;;;;;;3.50;1.95;;;;;;;35.69;18.07;100241.59;10216452;29;20048;-76
2022/07/19 18:33:19;;;;;;;3.65;1.85;;;;;;;35.34;18.73;100231.63;10212141;29;20122;-76
2022/07/19 18:38:22;;;;;;;3.03;1.92;;;;;;;35.11;19.25;100229.59;10212732;29;20043;-77
2022/07/19 18:43:26;;;;;;;3.33;2.00;;;;;;;34.84;19.85;100223.38;10212987;29;20081;-76
2022/07/19 18:48:29;;;;;;;2.53;2.08;;;;;;;34.59;20.03;100227.19;10207629;29;20035;-77
2022/07/19 18:53:34;;;;;;;3.30;2.17;;;;;;;34.30;20.04;100226.19;10212227;29;20040;-77
2022/07/19 18:58:38;;;;;;;8.00;2.33;;;;;;;34.08;21.06;100229.34;10218777;29;20046;-78
2022/07/19 19:03:41;;;;;;;5.82;2.40;;;;;;;33.83;21.05;100228.31;10219074;29;20643;-77
2022/07/19 19:08:44;;;;;;;6.00;2.55;;;;;;;33.60;21.22;100226.13;10233692;29;20048;-77
2022/07/19 19:13:49;;;;;;;2.50;2.20;;;;;;;33.37;21.55;100233.13;10188341;29;20084;-78
2022/07/19 19:18:54;;;;;;;2.95;2.40;;;;;;;33.16;22.04;100233.16;10179042;29;20064;-77
2022/07/19 19:24:03;;;;;;;2.78;2.55;;;;;;;32.87;22.29;100239.25;10179299;29;20047;-77
2022/07/19 19:29:07;;;;;;;5.15;2.35;;;;;;;32.59;22.63;100237.78;10180868;29;20563;-77
2022/07/19 19:34:10;;;;;;;6.22;2.63;;;;;;;32.36;22.48;100236.31;10178249;29;20056;-77
2022/07/19 19:39:13;;;;;;;4.25;2.58;;;;;;;32.15;22.82;100248.47;10178860;29;20052;-77
2022/07/19 19:44:17;;;;;;;3.80;2.65;;;;;;;31.95;23.34;100246.41;10179322;29;20088;-77
2022/07/19 19:49:20;;;;;;;4.82;2.25;;;;;;;31.76;28.10;100246.91;10180102;29;20055;-80
2022/07/19 19:54:23;;;;;;;5.57;2.55;;;;;;;31.41;29.25;100249.41;10181504;29;20048;-78
2022/07/19 19:59:27;;;;;;;4.82;2.60;;;;;;;31.12;29.12;100249.69;10178929;29;20543;-79
2022/07/19 20:04:31;;;;;;;5.47;2.63;;;;;;;30.83;27.77;100244.47;10177060;29;20110;-78
2022/07/19 20:09:34;;;;;;;4.85;2.92;;;;;;;30.63;27.87;100249.75;10181408;29;20059;-77
2022/07/19 20:14:38;;;;;;;4.93;3.05;;;;;;;30.50;28.44;100251.03;10180862;29;20472;-79
2022/07/19 20:19:41;;;;;;;3.65;3.35;;;;;;;30.31;27.29;100258.84;10180670;29;20127;-79
2022/07/19 20:24:44;;;;;;;8.80;3.42;;;;;;;30.21;27.16;100258.72;10180358;29;20106;-78
2022/07/19 20:29:48;;;;;;;6.22;3.15;;;;;;;30.24;26.46;100263.72;10180597;29;20122;-78
2022/07/19 20:34:51;;;;;;;2.70;2.50;;;;;;;30.16;27.85;100261.41;10181297;29;20059;-78
2022/07/19 20:39:54;;;;;;;6.10;3.00;;;;;;;30.09;26.55;100274.56;10182320;29;20058;-77
2022/07/19 20:44:58;;;;;;;4.03;2.92;;;;;;;29.96;26.81;100276.63;10188191;29;20047;-77
2022/07/19 20:50:01;;;;;;;4.22;2.75;;;;;;;29.82;26.85;100273.41;10184491;29;20055;-78
2022/07/19 20:55:07;;;;;;;6.30;2.70;;;;;;;29.69;27.11;100272.91;10180711;29;20055;-78
2022/07/19 21:00:12;;;;;;;6.22;3.03;;;;;;;29.59;27.53;100277.19;10181927;29;20067;-78
2022/07/19 21:05:15;;;;;;;4.40;2.97;;;;;;;29.53;27.84;100277.34;10195917;29;20071;-79
2022/07/19 21:10:18;;;;;;;8.07;3.67;;;;;;;29.34;28.06;100283.13;10180305;29;20066;-78
2022/07/19 21:15:22;;;;;;;3.75;2.58;;;;;;;29.23;27.93;100274.94;10179909;29;20394;-79
2022/07/19 21:20:25;;;;;;;5.95;3.60;;;;;;;29.05;27.68;100273.22;10179571;29;20044;-78
2022/07/19 21:25:28;;;;;;;4.40;2.85;;;;;;;28.91;28.38;100269.94;10188537;29;20047;-76
2022/07/19 21:30:32;;;;;;;6.03;2.70;;;;;;;28.85;28.66;100268.16;10187359;29;21265;-77
2022/07/19 21:35:35;;;;;;;5.03;2.72;;;;;;;28.75;28.71;100274.34;10197679;29;20047;-77
2022/07/19 21:40:39;;;;;;;3.55;2.90;;;;;;;28.62;28.91;100271.88;10186182;29;20166;-77
2022/07/19 21:45:43;;;;;;;6.82;3.00;;;;;;;28.58;28.47;100279.84;10186003;29;20058;-77
2022/07/19 21:50:46;;;;;;;3.92;3.00;;;;;;;28.46;29.35;100273.47;10187457;29;20127;-78
2022/07/19 21:55:49;;;;;;;4.78;3.15;;;;;;;28.38;29.09;100268.31;10188617;29;20138;-79
2022/07/19 22:00:53;;;;;;;5.55;3.17;;;;;;;28.25;29.20;100277.75;10187906;29;20059;-79
2022/07/19 22:05:58;;;;;;;7.80;3.47;;;;;;;28.17;29.47;100272.63;10187094;29;20047;-78
2022/07/19 22:11:01;;;;;;;4.22;2.90;;;;;;;28.10;29.31;100277.41;10190144;29;20055;-78
2022/07/19 22:16:06;;;;;;;5.32;2.90;;;;;;;28.05;29.49;100278.13;10195657;29;20062;-78
2022/07/19 22:21:10;;;;;;;4.93;2.83;;;;;;;28.00;29.74;100284.41;10187638;29;20062;-78
2022/07/19 22:26:12;;;;;;;7.78;3.22;;;;;;;27.86;29.55;100276.56;10191440;29;20103;-78
2022/07/19 22:31:17;;;;;;;6.82;2.83;;;;;;;27.76;29.75;100274.44;10188073;29;20138;-78
2022/07/19 22:36:20;;;;;;;5.70;2.97;;;;;;;27.63;30.05;100274.69;10184098;29;21178;-78
2022/07/19 22:41:23;;;;;;;6.30;3.08;;;;;;;27.59;29.94;100279.81;10185776;29;20771;-78
2022/07/19 22:46:27;;;;;;;3.40;2.65;;;;;;;27.48;30.46;100278.75;10183642;29;20066;-78
2022/07/19 22:51:30;;;;;;;7.47;2.67;;;;;;;27.40;30.17;100279.13;10200957;29;20536;-78
2022/07/19 22:56:33;;;;;;;9.88;3.30;;;;;;;27.27;30.46;100288.41;10191242;29;21117;-78
2022/07/19 23:01:37;;;;;;;6.15;2.97;;;;;;;27.22;30.94;100290.19;10184212;29;20060;-78
2022/07/19 23:06:50;;;;;;;5.50;2.70;;;;;;;27.10;30.69;100291.03;10182695;29;20111;-78
2022/07/19 23:11:53;;;;;;;4.10;2.88;;;;;;;27.02;30.59;100294.13;10185804;29;20075;-78
2022/07/19 23:16:57;;;;;;;5.28;3.50;;;;;;;26.88;31.00;100292.63;10184149;29;20155;-78
2022/07/19 23:22:00;;;;;;;5.18;2.92;;;;;;;26.81;30.88;100284.41;10196572;29;20051;-77
2022/07/19 23:27:03;;;;;;;4.45;3.78;;;;;;;26.67;30.95;100292.03;10195414;29;20048;-78
2022/07/19 23:32:08;;;;;;;8.20;2.90;;;;;;;26.62;31.30;100289.13;10182761;29;20148;-78